Jones - western half: Past 24 Hour Conditions

 

Cape Dorset Airport

09:00 PM EST 07 February 2016
Disclaimer

This table is a summary of hourly weather conditions for the past 24 hours.
Please note that these observations might not always be representative of weather conditions over their associated marine area.

Date / Time
(EST)
Wind(knots) Conditions Visibility(km) Pressure(kPa) Air tempC) Relative humidity(%) Dew pointC) Wind Chill
07 February 2016
21:00 W 12 gust 17 Clear 11 101.8 -26 79 -28 -38
20:00 W 18 gust 26 Haze 10 101.8 -25 79 -28 -40
19:00 W 13 gust 20 Mostly Cloudy 16 101.8 -26 80 -28 -38
18:00 W 15 Clear 16 101.7 -26 79 -28 -40
17:00 W 18 Mist 8 101.7 -26 79 -28 -41
16:00 W 17 Sunny 16 101.6 -26 79 -29 -41
15:00 W 13 Sunny 16 101.6 -27 78 -30 -41
14:00 WNW 20 Haze 5 101.5 -26 79 -29 -42
13:00 WNW 10 gust 16 Haze 10 101.6 -26 79 -29 -38
12:00 W 14 Sunny 16 101.5 -28 78 -31 -42
11:00 W 10 Sunny 13 101.5 -28 78 -31 -40
10:00 WNW 9 Sunny 11 101.5 -29 77 -32 -41
9:00 WNW 5 gust 15 Haze 10 101.5 -28 78 -31 -36
8:00 W 7 gust 15 Haze 5 101.5 -28 77 -31 -39
7:00 W 8 Mist 4 101.5 -28 79 -31 -39
6:00 W 9 Clear 16 101.4 -28 78 -31 -40
5:00 W 8 Haze 2 101.4 -27 79 -30 -38
4:00 W 7 Haze 8 101.4 -27 78 -30 -37
3:00 WNW 14 Mostly Cloudy 13 101.4 -28 80 -30 -42
2:00 W 9 Mist 6 101.3 -28 78 -30 -39
1:00 W 8 Haze 6 101.4 -27 79 -30 -38
0:00 W 9 Mist 6 101.4 -28 79 -30 -39
06 February 2016
23:00 W 8 Clear 16 101.4 -27 79 -30 -38
22:00 W 7 Clear 16 101.4 -29 77 -32 -39
21:00 W 6 Clear 16 101.4 -28 77 -31 -37

Zoom-in to make a selection

Map of Arctic - Eastern Arctic marine weather areas Baker Lake Airport Chesterfield Inlet Airport Coral Harbour Airport Gjoa Haven Airport Kugaaruk Airport Rankin Inlet Airport Shepherd Bay Airport Whale Cove Airport Arctic Bay Brevoort Island Qikiqtarjuaq Airport Cape Dorset Airport Cape Dyer Cape Hooper Clyde Airport Grise Fiord Airport Hall Beach Airport Igloolik Airport Iqaluit Airport Longstaff Bluff Pangnirtung Airport Pond Inlet Airport Naujaat Resolute Airport Resolution Island Rowley Island Airport Taloyoak Airport Wager Bay Akulivik Airport Ivujivik Airport Puvirnituq Airport Kangiqsujuaq Airport Kangirsuk Airport Quaqtaq Airport Tasiujaq Airport Cape Kakkiviak Cape Kiglapait Nain Airport Saglek Cape Mercy Kimmirut Airport Aupaluk Airport Salluit Airport Kangiqsualujjuaq Airport Cape Liverpool Fort Ross
Legend:
buoy Buoy
land station Land Station

Arctic - Eastern Arctic Area

Another Region

What we are doing

Date modified: